sensor_id;sensor_type;location;lat;lon;timestamp;pressure;altitude;pressure_sealevel;temperature;humidity
69955;BME280;57279;55.912;37.490;2022-09-21T00:03:35;99253.31;;;7.79;77.40
69955;BME280;57279;55.912;37.490;2022-09-21T00:06:05;99250.63;;;7.79;76.82
69955;BME280;57279;55.912;37.490;2022-09-21T00:08:32;99251.44;;;7.80;76.55
69955;BME280;57279;55.912;37.490;2022-09-21T00:10:58;99253.78;;;7.76;76.64
69955;BME280;57279;55.912;37.490;2022-09-21T00:13:25;99259.34;;;7.70;76.75
69955;BME280;57279;55.912;37.490;2022-09-21T00:15:54;99253.06;;;7.64;77.08
69955;BME280;57279;55.912;37.490;2022-09-21T00:18:20;99249.56;;;7.63;77.24
69955;BME280;57279;55.912;37.490;2022-09-21T00:20:46;99247.94;;;7.62;77.33
69955;BME280;57279;55.912;37.490;2022-09-21T00:23:12;99249.47;;;7.58;77.47
69955;BME280;57279;55.912;37.490;2022-09-21T00:25:38;99256.97;;;7.56;77.40
69955;BME280;57279;55.912;37.490;2022-09-21T00:28:03;99259.41;;;7.58;77.43
69955;BME280;57279;55.912;37.490;2022-09-21T00:30:29;99260.81;;;7.60;77.64
69955;BME280;57279;55.912;37.490;2022-09-21T00:32:55;99256.16;;;7.56;76.92
69955;BME280;57279;55.912;37.490;2022-09-21T00:35:20;99265.75;;;7.52;77.33
69955;BME280;57279;55.912;37.490;2022-09-21T00:37:46;99266.47;;;7.47;77.04
69955;BME280;57279;55.912;37.490;2022-09-21T00:40:12;99270.47;;;7.44;77.39
69955;BME280;57279;55.912;37.490;2022-09-21T00:42:38;99269.41;;;7.46;77.54
69955;BME280;57279;55.912;37.490;2022-09-21T00:45:04;99265.66;;;7.47;77.64
69955;BME280;57279;55.912;37.490;2022-09-21T00:47:33;99261.34;;;7.46;77.41
69955;BME280;57279;55.912;37.490;2022-09-21T00:50:05;99270.47;;;7.44;77.00
69955;BME280;57279;55.912;37.490;2022-09-21T00:52:36;99271.97;;;7.40;76.97
69955;BME280;57279;55.912;37.490;2022-09-21T00:55:11;99275.50;;;7.41;77.26
69955;BME280;57279;55.912;37.490;2022-09-21T00:57:40;99283.22;;;7.37;77.03
69955;BME280;57279;55.912;37.490;2022-09-21T01:00:08;99278.09;;;7.36;77.53
69955;BME280;57279;55.912;37.490;2022-09-21T01:02:36;99269.81;;;7.37;76.99
69955;BME280;57279;55.912;37.490;2022-09-21T01:05:03;99282.44;;;7.37;76.72
69955;BME280;57279;55.912;37.490;2022-09-21T01:07:31;99276.44;;;7.35;76.76
69955;BME280;57279;55.912;37.490;2022-09-21T01:10:02;99275.06;;;7.32;76.75
69955;BME280;57279;55.912;37.490;2022-09-21T01:18:04;99278.56;;;7.33;76.81
69955;BME280;57279;55.912;37.490;2022-09-21T01:26:36;99270.78;;;7.19;76.48
69955;BME280;57279;55.912;37.490;2022-09-21T01:36:57;99273.97;;;7.16;77.13
69955;BME280;57279;55.912;37.490;2022-09-21T01:39:28;99269.66;;;7.15;77.29
69955;BME280;57279;55.912;37.490;2022-09-21T01:41:55;99269.88;;;7.14;77.22
69955;BME280;57279;55.912;37.490;2022-09-21T01:44:25;99262.16;;;7.17;77.71
69955;BME280;57279;55.912;37.490;2022-09-21T01:46:53;99268.84;;;7.15;77.08
69955;BME280;57279;55.912;37.490;2022-09-21T01:49:27;99265.09;;;7.16;76.82
69955;BME280;57279;55.912;37.490;2022-09-21T01:52:01;99278.28;;;7.17;76.46
69955;BME280;57279;55.912;37.490;2022-09-21T01:54:34;99275.25;;;7.14;76.20
69955;BME280;57279;55.912;37.490;2022-09-21T01:57:30;99270.94;;;7.13;76.81
69955;BME280;57279;55.912;37.490;2022-09-21T01:59:59;99272.34;;;7.15;76.80
69955;BME280;57279;55.912;37.490;2022-09-21T02:02:48;99272.34;;;7.15;76.44
69955;BME280;57279;55.912;37.490;2022-09-21T02:05:18;99272.84;;;7.12;76.31
69955;BME280;57279;55.912;37.490;2022-09-21T02:07:47;99276.31;;;7.13;76.94
69955;BME280;57279;55.912;37.490;2022-09-21T02:10:21;99283.00;;;7.10;76.35
69955;BME280;57279;55.912;37.490;2022-09-21T02:12:51;99275.63;;;7.05;76.17
69955;BME280;57279;55.912;37.490;2022-09-21T02:15:25;99277.50;;;7.05;76.77
69955;BME280;57279;55.912;37.490;2022-09-21T02:20:31;99281.81;;;7.06;76.63
69955;BME280;57279;55.912;37.490;2022-09-21T02:23:11;99293.13;;;7.08;76.91
69955;BME280;57279;55.912;37.490;2022-09-21T02:26:04;99290.72;;;7.07;76.28
69955;BME280;57279;55.912;37.490;2022-09-21T02:34:51;99292.22;;;7.02;76.95
69955;BME280;57279;55.912;37.490;2022-09-21T02:37:27;99294.44;;;7.05;76.90
69955;BME280;57279;55.912;37.490;2022-09-21T02:39:58;99296.53;;;7.03;76.69
69955;BME280;57279;55.912;37.490;2022-09-21T02:42:28;99289.22;;;6.99;76.98
69955;BME280;57279;55.912;37.490;2022-09-21T02:47:49;99286.25;;;7.00;77.40
69955;BME280;57279;55.912;37.490;2022-09-21T02:50:22;99293.84;;;7.03;77.22
69955;BME280;57279;55.912;37.490;2022-09-21T02:52:50;99295.00;;;7.08;77.18
69955;BME280;57279;55.912;37.490;2022-09-21T02:55:18;99299.56;;;7.07;77.13
69955;BME280;57279;55.912;37.490;2022-09-21T02:57:46;99295.25;;;7.06;76.73
69955;BME280;57279;55.912;37.490;2022-09-21T03:00:14;99299.56;;;7.07;77.01
69955;BME280;57279;55.912;37.490;2022-09-21T03:02:43;99292.31;;;7.08;77.22
69955;BME280;57279;55.912;37.490;2022-09-21T03:05:10;99291.50;;;7.07;77.25
69955;BME280;57279;55.912;37.490;2022-09-21T03:07:36;99295.00;;;7.08;76.93
69955;BME280;57279;55.912;37.490;2022-09-21T03:10:03;99297.91;;;7.06;77.07
69955;BME280;57279;55.912;37.490;2022-09-21T03:12:28;99298.41;;;7.03;77.03
69955;BME280;57279;55.912;37.490;2022-09-21T03:14:55;99292.47;;;7.01;77.32
69955;BME280;57279;55.912;37.490;2022-09-21T03:17:21;99292.81;;;7.04;77.21
69955;BME280;57279;55.912;37.490;2022-09-21T03:19:46;99297.91;;;7.06;76.99
69955;BME280;57279;55.912;37.490;2022-09-21T03:22:12;99296.88;;;7.07;77.08
69955;BME280;57279;55.912;37.490;2022-09-21T03:24:37;99296.19;;;7.00;76.68
69955;BME280;57279;55.912;37.490;2022-09-21T03:27:17;99301.00;;;6.98;76.41
69955;BME280;57279;55.912;37.490;2022-09-21T03:29:44;99302.06;;;6.97;76.96
69955;BME280;57279;55.912;37.490;2022-09-21T03:32:13;99306.34;;;6.98;77.50
69955;BME280;57279;55.912;37.490;2022-09-21T03:34:42;99303.09;;;6.96;77.78
69955;BME280;57279;55.912;37.490;2022-09-21T03:37:09;99303.69;;;6.98;77.70
69955;BME280;57279;55.912;37.490;2022-09-21T03:39:35;99314.41;;;6.98;78.03
69955;BME280;57279;55.912;37.490;2022-09-21T03:42:01;99306.94;;;7.00;77.58
69955;BME280;57279;55.912;37.490;2022-09-21T03:44:26;99302.94;;;7.02;77.77
69955;BME280;57279;55.912;37.490;2022-09-21T03:46:52;99295.00;;;7.08;77.98
69955;BME280;57279;55.912;37.490;2022-09-21T03:49:18;99298.84;;;7.12;78.48
69955;BME280;57279;55.912;37.490;2022-09-21T03:51:44;99294.88;;;7.14;78.28
69955;BME280;57279;55.912;37.490;2022-09-21T03:54:10;99298.59;;;7.13;78.40
69955;BME280;57279;55.912;37.490;2022-09-21T03:56:36;99295.47;;;7.16;78.56
69955;BME280;57279;55.912;37.490;2022-09-21T03:59:02;99297.31;;;7.16;78.44
69955;BME280;57279;55.912;37.490;2022-09-21T04:01:28;99296.03;;;7.18;78.75
69955;BME280;57279;55.912;37.490;2022-09-21T04:03:53;99293.47;;;7.23;78.92
69955;BME280;57279;55.912;37.490;2022-09-21T04:06:19;99292.25;;;7.31;78.84
69955;BME280;57279;55.912;37.490;2022-09-21T04:08:45;99292.09;;;7.38;79.08
69955;BME280;57279;55.912;37.490;2022-09-21T04:11:14;99297.91;;;7.47;78.82
69955;BME280;57279;55.912;37.490;2022-09-21T04:13:40;99289.44;;;7.55;78.60
69955;BME280;57279;55.912;37.490;2022-09-21T04:16:08;99298.88;;;7.57;78.80
69955;BME280;57279;55.912;37.490;2022-09-21T04:18:39;99296.19;;;7.57;78.51
69955;BME280;57279;55.912;37.490;2022-09-21T04:21:08;99293.28;;;7.59;78.81
69955;BME280;57279;55.912;37.490;2022-09-21T04:23:33;99299.00;;;7.62;79.26
69955;BME280;57279;55.912;37.490;2022-09-21T04:26:01;99301.78;;;7.68;79.07
69955;BME280;57279;55.912;37.490;2022-09-21T04:28:26;99306.97;;;7.74;79.43
69955;BME280;57279;55.912;37.490;2022-09-21T04:30:52;99303.59;;;7.79;79.37
69955;BME280;57279;55.912;37.490;2022-09-21T04:33:20;99301.47;;;7.81;79.47
69955;BME280;57279;55.912;37.490;2022-09-21T04:35:46;99296.16;;;7.86;79.49
69955;BME280;57279;55.912;37.490;2022-09-21T04:38:12;99296.25;;;7.91;79.42
69955;BME280;57279;55.912;37.490;2022-09-21T04:40:38;99294.69;;;7.95;79.29
69955;BME280;57279;55.912;37.490;2022-09-21T04:43:03;99300.16;;;8.00;79.49
69955;BME280;57279;55.912;37.490;2022-09-21T04:45:29;99300.16;;;8.00;79.49
69955;BME280;57279;55.912;37.490;2022-09-21T04:47:55;99306.19;;;8.08;79.65
69955;BME280;57279;55.912;37.490;2022-09-21T04:50:20;99303.09;;;8.16;79.93
69955;BME280;57279;55.912;37.490;2022-09-21T04:52:46;99305.31;;;8.19;79.76
69955;BME280;57279;55.912;37.490;2022-09-21T04:55:12;99307.47;;;8.22;79.58
69955;BME280;57279;55.912;37.490;2022-09-21T04:57:38;99303.50;;;8.25;79.81
69955;BME280;57279;55.912;37.490;2022-09-21T05:00:04;99308.13;;;8.29;79.98
69955;BME280;57279;55.912;37.490;2022-09-21T05:02:30;99299.06;;;8.35;80.03
69955;BME280;57279;55.912;37.490;2022-09-21T05:04:55;99303.00;;;8.45;79.91
69955;BME280;57279;55.912;37.490;2022-09-21T05:07:21;99300.16;;;8.51;80.06
69955;BME280;57279;55.912;37.490;2022-09-21T05:09:47;99310.72;;;8.58;80.13
69955;BME280;57279;55.912;37.490;2022-09-21T05:12:29;99302.22;;;8.66;80.18
69955;BME280;57279;55.912;37.490;2022-09-21T05:14:55;99310.94;;;8.73;80.11
69955;BME280;57279;55.912;37.490;2022-09-21T05:17:20;99302.38;;;8.76;79.90
69955;BME280;57279;55.912;37.490;2022-09-21T05:19:48;99303.44;;;8.75;79.99
69955;BME280;57279;55.912;37.490;2022-09-21T05:22:14;99310.25;;;8.83;79.85
69955;BME280;57279;55.912;37.490;2022-09-21T05:24:39;99300.56;;;8.82;80.06
69955;BME280;57279;55.912;37.490;2022-09-21T05:27:05;99300.94;;;8.91;79.85
69955;BME280;57279;55.912;37.490;2022-09-21T05:29:31;99301.81;;;8.96;80.10
69955;BME280;57279;55.912;37.490;2022-09-21T05:32:53;99309.16;;;9.01;80.17
69955;BME280;57279;55.912;37.490;2022-09-21T05:34:59;99309.78;;;9.08;80.54
69955;BME280;57279;55.912;37.490;2022-09-21T05:37:37;99310.59;;;9.09;81.01
69955;BME280;57279;55.912;37.490;2022-09-21T05:40:06;99315.53;;;9.17;80.99
69955;BME280;57279;55.912;37.490;2022-09-21T05:42:34;99316.41;;;9.23;81.12
69955;BME280;57279;55.912;37.490;2022-09-21T05:44:59;99317.84;;;9.30;81.28
69955;BME280;57279;55.912;37.490;2022-09-21T06:03:28;99308.69;;;9.86;80.97
69955;BME280;57279;55.912;37.490;2022-09-21T06:05:54;99308.50;;;9.92;80.93
69955;BME280;57279;55.912;37.490;2022-09-21T06:08:20;99304.25;;;10.02;80.30
69955;BME280;57279;55.912;37.490;2022-09-21T06:10:46;99309.72;;;10.12;79.71
69955;BME280;57279;55.912;37.490;2022-09-21T06:13:13;99310.34;;;10.24;79.19
69955;BME280;57279;55.912;37.490;2022-09-21T06:15:38;99312.78;;;10.26;79.04
69955;BME280;57279;55.912;37.490;2022-09-21T06:18:07;99314.22;;;10.33;79.20
69955;BME280;57279;55.912;37.490;2022-09-21T06:20:33;99308.88;;;10.39;79.04
69955;BME280;57279;55.912;37.490;2022-09-21T06:23:01;99318.38;;;10.46;78.77
69955;BME280;57279;55.912;37.490;2022-09-21T06:25:26;99314.09;;;10.55;78.82
69955;BME280;57279;55.912;37.490;2022-09-21T06:27:52;99317.09;;;10.59;78.70
69955;BME280;57279;55.912;37.490;2022-09-21T06:30:17;99329.28;;;10.67;79.28
69955;BME280;57279;55.912;37.490;2022-09-21T06:32:43;99322.59;;;10.74;79.49
69955;BME280;57279;55.912;37.490;2022-09-21T06:35:09;99322.34;;;10.81;79.53
69955;BME280;57279;55.912;37.490;2022-09-21T06:37:34;99317.28;;;10.95;78.87
69955;BME280;57279;55.912;37.490;2022-09-21T06:40:00;99323.00;;;10.99;78.32
69955;BME280;57279;55.912;37.490;2022-09-21T06:42:26;99320.00;;;11.00;78.08
69955;BME280;57279;55.912;37.490;2022-09-21T06:44:51;99309.25;;;11.10;78.68
69955;BME280;57279;55.912;37.490;2022-09-21T06:47:17;99320.34;;;11.14;78.08
69955;BME280;57279;55.912;37.490;2022-09-21T06:49:43;99324.38;;;11.11;78.25
69955;BME280;57279;55.912;37.490;2022-09-21T06:52:08;99317.66;;;11.19;78.49
69955;BME280;57279;55.912;37.490;2022-09-21T06:54:34;99314.44;;;11.32;78.50
69955;BME280;57279;55.912;37.490;2022-09-21T06:56:59;99312.84;;;11.42;78.60
69955;BME280;57279;55.912;37.490;2022-09-21T06:59:25;99309.34;;;11.51;78.15
69955;BME280;57279;55.912;37.490;2022-09-21T07:01:50;99312.63;;;11.59;77.61
69955;BME280;57279;55.912;37.490;2022-09-21T07:04:16;99312.66;;;11.64;77.31
69955;BME280;57279;55.912;37.490;2022-09-21T07:06:42;99313.44;;;11.59;77.22
69955;BME280;57279;55.912;37.490;2022-09-21T07:09:07;99315.09;;;11.65;77.39
69955;BME280;57279;55.912;37.490;2022-09-21T07:11:33;99314.84;;;11.77;76.84
69955;BME280;57279;55.912;37.490;2022-09-21T07:13:59;99314.28;;;11.85;76.97
69955;BME280;57279;55.912;37.490;2022-09-21T07:16:24;99321.66;;;11.90;76.39
69955;BME280;57279;55.912;37.490;2022-09-21T07:18:50;99316.47;;;11.93;76.21
69955;BME280;57279;55.912;37.490;2022-09-21T07:21:15;99317.84;;;11.96;76.13
69955;BME280;57279;55.912;37.490;2022-09-21T07:23:41;99319.75;;;12.01;75.81
69955;BME280;57279;55.912;37.490;2022-09-21T07:26:10;99321.94;;;12.09;75.74
69955;BME280;57279;55.912;37.490;2022-09-21T07:28:36;99317.03;;;12.01;75.74
69955;BME280;57279;55.912;37.490;2022-09-21T07:31:13;99317.84;;;12.01;75.95
69955;BME280;57279;55.912;37.490;2022-09-21T07:33:39;99321.34;;;12.07;75.37
69955;BME280;57279;55.912;37.490;2022-09-21T07:36:06;99321.09;;;12.08;75.46
69955;BME280;57279;55.912;37.490;2022-09-21T07:38:40;99313.25;;;12.12;75.83
69955;BME280;57279;55.912;37.490;2022-09-21T07:41:07;99309.44;;;12.18;75.78
69955;BME280;57279;55.912;37.490;2022-09-21T07:43:33;99304.84;;;12.29;75.92
69955;BME280;57279;55.912;37.490;2022-09-21T07:45:59;99314.03;;;12.28;75.06
69955;BME280;57279;55.912;37.490;2022-09-21T07:48:27;99311.88;;;12.35;74.74
69955;BME280;57279;55.912;37.490;2022-09-21T07:50:53;99318.09;;;12.41;74.13
69955;BME280;57279;55.912;37.490;2022-09-21T07:53:21;99313.75;;;12.45;73.85
69955;BME280;57279;55.912;37.490;2022-09-21T07:55:47;99319.16;;;12.55;73.61
69955;BME280;57279;55.912;37.490;2022-09-21T07:58:13;99315.63;;;12.60;72.83
69955;BME280;57279;55.912;37.490;2022-09-21T08:00:57;99315.63;;;12.65;72.95
69955;BME280;57279;55.912;37.490;2022-09-21T08:03:22;99315.06;;;12.73;73.43
69955;BME280;57279;55.912;37.490;2022-09-21T08:05:48;99315.31;;;12.82;72.97
69955;BME280;57279;55.912;37.490;2022-09-21T08:08:14;99311.75;;;12.86;72.51
69955;BME280;57279;55.912;37.490;2022-09-21T08:10:41;99316.06;;;12.93;72.51
69955;BME280;57279;55.912;37.490;2022-09-21T08:13:06;99319.59;;;12.98;71.71
69955;BME280;57279;55.912;37.490;2022-09-21T08:15:32;99319.03;;;13.06;71.28
69955;BME280;57279;55.912;37.490;2022-09-21T08:17:58;99319.25;;;13.15;71.21
69955;BME280;57279;55.912;37.490;2022-09-21T08:20:25;99313.28;;;13.18;69.79
69955;BME280;57279;55.912;37.490;2022-09-21T08:22:50;99302.69;;;13.22;69.58
69955;BME280;57279;55.912;37.490;2022-09-21T08:25:19;99307.81;;;13.34;69.77
69955;BME280;57279;55.912;37.490;2022-09-21T08:27:44;99312.38;;;13.38;68.61
69955;BME280;57279;55.912;37.490;2022-09-21T08:30:11;99303.69;;;13.46;68.50
69955;BME280;57279;55.912;37.490;2022-09-21T08:32:38;99310.97;;;13.51;68.93
69955;BME280;57279;55.912;37.490;2022-09-21T08:35:06;99309.03;;;13.57;68.74
69955;BME280;57279;55.912;37.490;2022-09-21T08:37:31;99305.78;;;13.60;68.27
69955;BME280;57279;55.912;37.490;2022-09-21T08:40:01;99307.91;;;13.63;68.94
69955;BME280;57279;55.912;37.490;2022-09-21T08:45:02;99316.03;;;13.68;68.24
69955;BME280;57279;55.912;37.490;2022-09-21T08:47:46;99303.00;;;13.65;67.63
69955;BME280;57279;55.912;37.490;2022-09-21T08:50:43;99300.28;;;13.70;67.86
69955;BME280;57279;55.912;37.490;2022-09-21T08:53:17;99303.00;;;13.65;67.48
69955;BME280;57279;55.912;37.490;2022-09-21T08:55:44;99304.09;;;13.69;67.15
69955;BME280;57279;55.912;37.490;2022-09-21T08:58:31;99298.69;;;13.64;67.58
69955;BME280;57279;55.912;37.490;2022-09-21T09:03:52;99302.72;;;13.66;67.77
69955;BME280;57279;55.912;37.490;2022-09-21T09:12:19;99290.19;;;13.76;67.95
69955;BME280;57279;55.912;37.490;2022-09-21T09:17:52;99298.66;;;13.69;67.29
69955;BME280;57279;55.912;37.490;2022-09-21T09:20:39;99288.63;;;13.69;67.52
69955;BME280;57279;55.912;37.490;2022-09-21T09:24:13;99280.44;;;13.75;67.59
69955;BME280;57279;55.912;37.490;2022-09-21T09:26:13;99283.09;;;13.80;66.32
69955;BME280;57279;55.912;37.490;2022-09-21T09:31:48;99289.81;;;13.87;66.81
69955;BME280;57279;55.912;37.490;2022-09-21T09:34:32;99279.28;;;13.86;65.15
69955;BME280;57279;55.912;37.490;2022-09-21T09:37:11;99279.06;;;13.77;64.55
69955;BME280;57279;55.912;37.490;2022-09-21T09:39:38;99281.22;;;13.80;64.55
69955;BME280;57279;55.912;37.490;2022-09-21T09:45:12;99275.22;;;13.83;64.45
69955;BME280;57279;55.912;37.490;2022-09-21T09:47:46;99276.22;;;13.93;64.15
69955;BME280;57279;55.912;37.490;2022-09-21T09:50:22;99269.13;;;13.97;65.17
69955;BME280;57279;55.912;37.490;2022-09-21T09:52:50;99269.88;;;14.07;65.96
69955;BME280;57279;55.912;37.490;2022-09-21T09:55:26;99269.06;;;14.07;64.95
69955;BME280;57279;55.912;37.490;2022-09-21T09:57:55;99267.38;;;14.11;64.50
69955;BME280;57279;55.912;37.490;2022-09-21T10:00:21;99264.97;;;14.10;63.43
69955;BME280;57279;55.912;37.490;2022-09-21T10:02:54;99267.94;;;14.08;67.37
69955;BME280;57279;55.912;37.490;2022-09-21T10:05:33;99276.38;;;14.06;63.43
69955;BME280;57279;55.912;37.490;2022-09-21T10:07:59;99265.00;;;14.04;63.60
69955;BME280;57279;55.912;37.490;2022-09-21T10:13:10;99270.38;;;14.10;64.73
69955;BME280;57279;55.912;37.490;2022-09-21T10:15:51;99271.97;;;14.16;63.34
69955;BME280;57279;55.912;37.490;2022-09-21T10:21:08;99272.19;;;14.19;62.28
69955;BME280;57279;55.912;37.490;2022-09-21T10:23:49;99269.44;;;14.24;62.89
69955;BME280;57279;55.912;37.490;2022-09-21T10:26:17;99271.88;;;14.26;62.54
69955;BME280;57279;55.912;37.490;2022-09-21T10:29:01;99266.63;;;14.35;60.98
69955;BME280;57279;55.912;37.490;2022-09-21T10:31:28;99256.38;;;14.26;60.43
69955;BME280;57279;55.912;37.490;2022-09-21T10:36:29;99263.63;;;14.36;61.24
69955;BME280;57279;55.912;37.490;2022-09-21T10:38:57;99261.19;;;14.35;60.03
69955;BME280;57279;55.912;37.490;2022-09-21T10:41:35;99266.56;;;14.40;59.69
69955;BME280;57279;55.912;37.490;2022-09-21T10:44:01;99253.78;;;14.40;59.52
69955;BME280;57279;55.912;37.490;2022-09-21T10:46:34;99256.75;;;14.44;59.78
69955;BME280;57279;55.912;37.490;2022-09-21T10:49:01;99247.28;;;14.41;60.20
69955;BME280;57279;55.912;37.490;2022-09-21T10:51:28;99252.34;;;14.48;60.55
69955;BME280;57279;55.912;37.490;2022-09-21T10:53:56;99261.03;;;14.50;59.73
69955;BME280;57279;55.912;37.490;2022-09-21T10:56:22;99260.22;;;14.50;59.20
69955;BME280;57279;55.912;37.490;2022-09-21T11:01:47;99256.94;;;14.53;59.02
69955;BME280;57279;55.912;37.490;2022-09-21T11:07:27;99265.38;;;14.51;57.61
69955;BME280;57279;55.912;37.490;2022-09-21T11:18:29;99253.72;;;14.75;57.14
69955;BME280;57279;55.912;37.490;2022-09-21T11:21:04;99252.13;;;14.74;56.58
69955;BME280;57279;55.912;37.490;2022-09-21T11:24:03;99250.25;;;14.69;58.18
69955;BME280;57279;55.912;37.490;2022-09-21T11:26:46;99261.25;;;14.59;58.22
69955;BME280;57279;55.912;37.490;2022-09-21T11:29:31;99255.59;;;14.50;58.98
69955;BME280;57279;55.912;37.490;2022-09-21T11:39:47;99251.25;;;14.25;58.92
69955;BME280;57279;55.912;37.490;2022-09-21T11:45:28;99247.72;;;14.24;60.03
69955;BME280;57279;55.912;37.490;2022-09-21T11:48:07;99245.00;;;14.24;59.45
69955;BME280;57279;55.912;37.490;2022-09-21T12:09:37;99225.63;;;14.07;61.38
69955;BME280;57279;55.912;37.490;2022-09-21T12:22:17;99219.59;;;14.10;60.59
69955;BME280;57279;55.912;37.490;2022-09-21T12:24:49;99223.13;;;14.11;61.18
69955;BME280;57279;55.912;37.490;2022-09-21T12:27:28;99220.13;;;14.12;60.91
69955;BME280;57279;55.912;37.490;2022-09-21T12:29:59;99219.09;;;14.08;60.52
69955;BME280;57279;55.912;37.490;2022-09-21T12:32:45;99217.81;;;14.00;61.03
69955;BME280;57279;55.912;37.490;2022-09-21T12:35:42;99223.63;;;13.88;61.08
69955;BME280;57279;55.912;37.490;2022-09-21T12:38:20;99226.59;;;13.87;61.31
69955;BME280;57279;55.912;37.490;2022-09-21T12:40:57;99227.41;;;13.87;62.04
69955;BME280;57279;55.912;37.490;2022-09-21T12:48:37;99225.63;;;13.73;61.98
69955;BME280;57279;55.912;37.490;2022-09-21T12:53:45;99217.56;;;13.67;62.29
69955;BME280;57279;55.912;37.490;2022-09-21T12:57:07;99214.03;;;13.67;61.83
69955;BME280;57279;55.912;37.490;2022-09-21T12:59:24;99220.56;;;13.61;61.76
69955;BME280;57279;55.912;37.490;2022-09-21T13:05:15;99221.47;;;13.51;62.54
69955;BME280;57279;55.912;37.490;2022-09-21T13:08:10;99221.72;;;13.55;63.48
69955;BME280;57279;55.912;37.490;2022-09-21T13:13:38;99218.75;;;13.51;63.96
69955;BME280;57279;55.912;37.490;2022-09-21T13:18:54;99221.78;;;13.44;63.76
69955;BME280;57279;55.912;37.490;2022-09-21T13:21:26;99215.06;;;13.37;63.65
69955;BME280;57279;55.912;37.490;2022-09-21T13:24:03;99211.53;;;13.36;64.10
69955;BME280;57279;55.912;37.490;2022-09-21T13:36:41;99216.69;;;13.38;64.20
69955;BME280;57279;55.912;37.490;2022-09-21T13:41:33;99226.19;;;13.35;64.03
69955;BME280;57279;55.912;37.490;2022-09-21T13:44:01;99220.78;;;13.30;64.11
69955;BME280;57279;55.912;37.490;2022-09-21T13:52:16;99213.47;;;13.25;64.62
69955;BME280;57279;55.912;37.490;2022-09-21T13:57:36;99209.41;;;13.23;64.99
69955;BME280;57279;55.912;37.490;2022-09-21T14:05:37;99202.38;;;13.22;64.87
69955;BME280;57279;55.912;37.490;2022-09-21T14:10:47;99203.50;;;13.16;65.31
69955;BME280;57279;55.912;37.490;2022-09-21T14:13:33;99201.88;;;13.15;66.15
69955;BME280;57279;55.912;37.490;2022-09-21T14:18:51;99208.09;;;13.15;65.36
69955;BME280;57279;55.912;37.490;2022-09-21T14:21:17;99209.47;;;13.13;65.49
69955;BME280;57279;55.912;37.490;2022-09-21T14:29:20;99204.06;;;13.13;65.51
69955;BME280;57279;55.912;37.490;2022-09-21T14:31:49;99202.75;;;13.10;66.39
69955;BME280;57279;55.912;37.490;2022-09-21T14:34:22;99200.56;;;13.07;66.54
69955;BME280;57279;55.912;37.490;2022-09-21T14:36:49;99200.31;;;13.03;66.23
69955;BME280;57279;55.912;37.490;2022-09-21T14:39:33;99200.88;;;13.00;66.21
69955;BME280;57279;55.912;37.490;2022-09-21T14:42:06;99199.56;;;12.93;66.69
69955;BME280;57279;55.912;37.490;2022-09-21T14:44:37;99206.38;;;12.85;67.18
69955;BME280;57279;55.912;37.490;2022-09-21T14:50:00;99200.28;;;12.59;68.11
69955;BME280;57279;55.912;37.490;2022-09-21T14:52:53;99204.31;;;12.61;68.18
69955;BME280;57279;55.912;37.490;2022-09-21T14:55:24;99207.28;;;12.65;68.16
69955;BME280;57279;55.912;37.490;2022-09-21T15:00:46;99207.81;;;12.67;67.84
69955;BME280;57279;55.912;37.490;2022-09-21T15:03:46;99213.25;;;12.62;67.47
69955;BME280;57279;55.912;37.490;2022-09-21T15:06:28;99221.94;;;12.59;67.13
69955;BME280;57279;55.912;37.490;2022-09-21T15:09:28;99216.53;;;12.59;67.25
69955;BME280;57279;55.912;37.490;2022-09-21T15:12:17;99215.41;;;12.60;68.65
69955;BME280;57279;55.912;37.490;2022-09-21T15:17:27;99221.41;;;12.46;67.78
69955;BME280;57279;55.912;37.490;2022-09-21T15:19:58;99220.63;;;12.41;67.91
69955;BME280;57279;55.912;37.490;2022-09-21T15:22:26;99223.59;;;12.39;68.45
69955;BME280;57279;55.912;37.490;2022-09-21T15:24:57;99223.91;;;12.38;68.18
69955;BME280;57279;55.912;37.490;2022-09-21T15:27:30;99226.88;;;12.36;68.71
69955;BME280;57279;55.912;37.490;2022-09-21T15:29:59;99224.97;;;12.37;68.83
69955;BME280;57279;55.912;37.490;2022-09-21T15:32:34;99227.69;;;12.37;69.52
69955;BME280;57279;55.912;37.490;2022-09-21T15:35:04;99230.38;;;12.37;69.46
69955;BME280;57279;55.912;37.490;2022-09-21T15:37:35;99231.22;;;12.32;69.57
69955;BME280;57279;55.912;37.490;2022-09-21T15:40:14;99231.50;;;12.36;69.46
69955;BME280;57279;55.912;37.490;2022-09-21T15:42:58;99235.00;;;12.36;69.44
69955;BME280;57279;55.912;37.490;2022-09-21T15:48:17;99247.44;;;12.37;69.64
69955;BME280;57279;55.912;37.490;2022-09-21T15:50:50;99237.97;;;12.40;69.68
69955;BME280;57279;55.912;37.490;2022-09-21T15:53:25;99240.16;;;12.38;70.05
69955;BME280;57279;55.912;37.490;2022-09-21T15:55:55;99245.56;;;12.38;70.05
69955;BME280;57279;55.912;37.490;2022-09-21T15:58:30;99256.09;;;12.39;70.82
69955;BME280;57279;55.912;37.490;2022-09-21T16:01:00;99254.22;;;12.40;71.05
69955;BME280;57279;55.912;37.490;2022-09-21T16:03:26;99256.63;;;12.41;71.12
69955;BME280;57279;55.912;37.490;2022-09-21T16:05:55;99258.78;;;12.44;70.89
69955;BME280;57279;55.912;37.490;2022-09-21T16:08:34;99260.44;;;12.45;71.81
69955;BME280;57279;55.912;37.490;2022-09-21T16:13:43;99263.41;;;12.44;71.37
69955;BME280;57279;55.912;37.490;2022-09-21T16:16:27;99266.69;;;12.36;71.27
69955;BME280;57279;55.912;37.490;2022-09-21T16:18:54;99265.88;;;12.25;72.35
69955;BME280;57279;55.912;37.490;2022-09-21T16:21:30;99266.94;;;12.24;72.48
69955;BME280;57279;55.912;37.490;2022-09-21T16:24:15;99266.94;;;12.29;72.69
69955;BME280;57279;55.912;37.490;2022-09-21T16:26:55;99269.38;;;12.30;72.12
69955;BME280;57279;55.912;37.490;2022-09-21T16:29:35;99267.50;;;12.31;71.89
69955;BME280;57279;55.912;37.490;2022-09-21T16:34:46;99274.53;;;12.32;72.52
69955;BME280;57279;55.912;37.490;2022-09-21T16:39:51;99275.34;;;12.32;72.85